sensor_id;sensor_type;location;lat;lon;timestamp;P1;P2;P0
57798;PMS7003;43626;53.866;30.298;2023-07-20T00:00:24;178.4;177.8;175.8
57798;PMS7003;43626;53.866;30.298;2023-07-20T00:05:10;170.2;169.8;167.8
57798;PMS7003;43626;53.866;30.298;2023-07-20T00:10:50;158;157.4;155.6
57798;PMS7003;43626;53.866;30.298;2023-07-20T00:15:58;215.4;214.4;213
57798;PMS7003;43626;53.866;30.298;2023-07-20T00:20:58;235.2;234.6;232.6
57798;PMS7003;43626;53.866;30.298;2023-07-20T00:25:36;236.8;235.6;232.8
57798;PMS7003;43626;53.866;30.298;2023-07-20T00:30:30;289;288.8;286.8
57798;PMS7003;43626;53.866;30.298;2023-07-20T00:35:38;298.8;297.6;294.4
57798;PMS7003;43626;53.866;30.298;2023-07-20T00:40:24;287.2;287;284.2
57798;PMS7003;43626;53.866;30.298;2023-07-20T00:45:18;282;281.4;276.4
57798;PMS7003;43626;53.866;30.298;2023-07-20T00:50:50;311.4;311;304
57798;PMS7003;43626;53.866;30.298;2023-07-20T00:55:58;318.2;317.6;307.2
57798;PMS7003;43626;53.866;30.298;2023-07-20T01:00:18;327.3;327;316.5
57798;PMS7003;43626;53.866;30.298;2023-07-20T01:05:38;323.6;323.2;312.6
57798;PMS7003;43626;53.866;30.298;2023-07-20T01:10:59;292;292;283.4
57798;PMS7003;43626;53.866;30.298;2023-07-20T01:15:48;315.6;315.6;306
57798;PMS7003;43626;53.866;30.298;2023-07-20T01:20:19;308.2;307.8;299.4
57798;PMS7003;43626;53.866;30.298;2023-07-20T01:25:51;316;315.2;307
57798;PMS7003;43626;53.866;30.298;2023-07-20T01:30:52;285.8;285.8;279.2
57798;PMS7003;43626;53.866;30.298;2023-07-20T01:35:12;315.2;315;306.8
57798;PMS7003;43626;53.866;30.298;2023-07-20T01:40:36;312;312;305.2
57798;PMS7003;43626;53.866;30.298;2023-07-20T01:45:58;290.6;290.2;283.4
57798;PMS7003;43626;53.866;30.298;2023-07-20T01:50:50;298.2;297.8;290.8
57798;PMS7003;43626;53.866;30.298;2023-07-20T01:55:24;316.4;315;308.2
57798;PMS7003;43626;53.866;30.298;2023-07-20T02:00:30;325.3;325.3;318.3
57798;PMS7003;43626;53.866;30.298;2023-07-20T02:05:58;317.6;316.4;309.4
57798;PMS7003;43626;53.866;30.298;2023-07-20T02:10:18;311.8;311.4;303.6
57798;PMS7003;43626;53.866;30.298;2023-07-20T02:15:12;317.8;317;309
57798;PMS7003;43626;53.866;30.298;2023-07-20T02:20:20;301;300.6;291.8
57798;PMS7003;43626;53.866;30.298;2023-07-20T02:25:50;319.2;317.2;305.2
57798;PMS7003;43626;53.866;30.298;2023-07-20T02:30:58;318;315.8;299.6
57798;PMS7003;43626;53.866;30.298;2023-07-20T02:35:12;323.8;321.6;306.2
57798;PMS7003;43626;53.866;30.298;2023-07-20T02:40:12;285;282.8;270
57798;PMS7003;43626;53.866;30.298;2023-07-20T02:45:10;270;269.4;263.6
57798;PMS7003;43626;53.866;30.298;2023-07-20T02:50:58;278.8;278;276
57798;PMS7003;43626;53.866;30.298;2023-07-20T02:55:44;241.2;240.8;239.2
57798;PMS7003;43626;53.866;30.298;2023-07-20T03:00:48;263.5;263;260.8
57798;PMS7003;43626;53.866;30.298;2023-07-20T03:05:56;243;242.8;241
57798;PMS7003;43626;53.866;30.298;2023-07-20T03:10:38;253;252.4;250.2
57798;PMS7003;43626;53.866;30.298;2023-07-20T03:15:18;270.4;270.2;268.4
57798;PMS7003;43626;53.866;30.298;2023-07-20T03:20:44;265;264.6;262.8
57798;PMS7003;43626;53.866;30.298;2023-07-20T03:25:58;263.6;263.2;262.2
57798;PMS7003;43626;53.866;30.298;2023-07-20T03:30:38;256.4;256.4;254.2
57798;PMS7003;43626;53.866;30.298;2023-07-20T03:35:12;236.8;236.4;234.6
57798;PMS7003;43626;53.866;30.298;2023-07-20T03:40:59;228;227;225.6
57798;PMS7003;43626;53.866;30.298;2023-07-20T03:45:22;230.6;229.8;227.2
57798;PMS7003;43626;53.866;30.298;2023-07-20T03:50:18;233;231.8;230
57798;PMS7003;43626;53.866;30.298;2023-07-20T03:55:38;227.6;227.2;225.4
57798;PMS7003;43626;53.866;30.298;2023-07-20T04:00:38;226.3;225.5;223.5
57798;PMS7003;43626;53.866;30.298;2023-07-20T04:05:58;248;247.6;246.2
57798;PMS7003;43626;53.866;30.298;2023-07-20T04:10:44;257;256.8;255.4
57798;PMS7003;43626;53.866;30.298;2023-07-20T04:15:36;215.4;215.4;214.2
57798;PMS7003;43626;53.866;30.298;2023-07-20T04:20:12;186.8;186.2;184.8
57798;PMS7003;43626;53.866;30.298;2023-07-20T04:25:18;178.4;178.4;177.2
57798;PMS7003;43626;53.866;30.298;2023-07-20T04:30:18;168.2;168.2;166.2
57798;PMS7003;43626;53.866;30.298;2023-07-20T04:35:47;170.4;170;168.2
57798;PMS7003;43626;53.866;30.298;2023-07-20T04:40:38;148;147.4;145.8
57798;PMS7003;43626;53.866;30.298;2023-07-20T04:45:58;163.4;163.2;161.4
57798;PMS7003;43626;53.866;30.298;2023-07-20T04:50:36;157.4;157;155.8
57798;PMS7003;43626;53.866;30.298;2023-07-20T04:55:26;170.2;170;168.4
57798;PMS7003;43626;53.866;30.298;2023-07-20T05:00:38;180.5;180.5;179
57798;PMS7003;43626;53.866;30.298;2023-07-20T05:05:22;223.4;222.4;215.8
57798;PMS7003;43626;53.866;30.298;2023-07-20T05:10:28;274;273.8;262.8
57798;PMS7003;43626;53.866;30.298;2023-07-20T05:15:32;300.6;300.4;285.6
57798;PMS7003;43626;53.866;30.298;2023-07-20T05:20:58;296.4;296;283.6
57798;PMS7003;43626;53.866;30.298;2023-07-20T05:25:24;324;324;307.8
57798;PMS7003;43626;53.866;30.298;2023-07-20T05:30:58;286.6;286.6;273.8
57798;PMS7003;43626;53.866;30.298;2023-07-20T05:35:58;235.2;235;227
57798;PMS7003;43626;53.866;30.298;2023-07-20T05:40:59;224.6;224;215.6
57798;PMS7003;43626;53.866;30.298;2023-07-20T05:45:30;221.4;220.8;211.8
57798;PMS7003;43626;53.866;30.298;2023-07-20T05:50:44;315;314.8;281
57798;PMS7003;43626;53.866;30.298;2023-07-20T05:55:38;311.4;310.6;279.8
57798;PMS7003;43626;53.866;30.298;2023-07-20T06:00:18;303.8;303.5;269.3
57798;PMS7003;43626;53.866;30.298;2023-07-20T06:05:30;281;279.8;253.8
57798;PMS7003;43626;53.866;30.298;2023-07-20T06:10:42;322.6;322;278.6
57798;PMS7003;43626;53.866;30.298;2023-07-20T06:15:50;336;335.4;287
57798;PMS7003;43626;53.866;30.298;2023-07-20T06:20:30;347.6;347.4;298
57798;PMS7003;43626;53.866;30.298;2023-07-20T06:25:18;251.2;251;240
57798;PMS7003;43626;53.866;30.298;2023-07-20T06:30:14;283.8;283;268.8
57798;PMS7003;43626;53.866;30.298;2023-07-20T06:35:30;342;341.8;326.8
57798;PMS7003;43626;53.866;30.298;2023-07-20T06:40:18;337.6;337;321.6
57798;PMS7003;43626;53.866;30.298;2023-07-20T06:45:38;256.2;256.2;245.8
57798;PMS7003;43626;53.866;30.298;2023-07-20T06:50:50;215;214.6;205.4
57798;PMS7003;43626;53.866;30.298;2023-07-20T06:55:58;208;208;199.8
57798;PMS7003;43626;53.866;30.298;2023-07-20T07:00:36;191;190.6;182.6
57798;PMS7003;43626;53.866;30.298;2023-07-20T07:05:12;236.8;236.5;227.5
57798;PMS7003;43626;53.866;30.298;2023-07-20T07:10:18;207.6;207.2;195.8
57798;PMS7003;43626;53.866;30.298;2023-07-20T07:15:58;235.4;235;222.4
57798;PMS7003;43626;53.866;30.298;2023-07-20T07:20:58;233.4;233.4;220.4
57798;PMS7003;43626;53.866;30.298;2023-07-20T07:25:58;209.6;209.6;198
57798;PMS7003;43626;53.866;30.298;2023-07-20T07:30:58;219.6;218.8;207.4
57798;PMS7003;43626;53.866;30.298;2023-07-20T07:35:44;222.8;222.2;209
57798;PMS7003;43626;53.866;30.298;2023-07-20T07:40:12;208.8;208.2;196.8
57798;PMS7003;43626;53.866;30.298;2023-07-20T07:45:44;212;211.4;201.4
57798;PMS7003;43626;53.866;30.298;2023-07-20T07:50:58;214.4;213.8;203.8
57798;PMS7003;43626;53.866;30.298;2023-07-20T07:55:38;230.6;230.2;220.8
57798;PMS7003;43626;53.866;30.298;2023-07-20T08:00:50;179.4;178.8;171.2
57798;PMS7003;43626;53.866;30.298;2023-07-20T08:05:56;165.5;165;158.8
57798;PMS7003;43626;53.866;30.298;2023-07-20T08:10:12;149.2;148.2;141.6
57798;PMS7003;43626;53.866;30.298;2023-07-20T08:15:12;155.2;154.6;147.8
57798;PMS7003;43626;53.866;30.298;2023-07-20T08:20:12;149.4;149;143.4
57798;PMS7003;43626;53.866;30.298;2023-07-20T08:25:36;146.4;146;139.8
57798;PMS7003;43626;53.866;30.298;2023-07-20T08:30:40;148.2;148.2;142.8
57798;PMS7003;43626;53.866;30.298;2023-07-20T08:35:14;146.8;146.2;141
57798;PMS7003;43626;53.866;30.298;2023-07-20T08:40:39;144.2;142.6;137.4
57798;PMS7003;43626;53.866;30.298;2023-07-20T08:45:18;144.8;144;137.6
57798;PMS7003;43626;53.866;30.298;2023-07-20T08:50:12;145;144.6;138
57798;PMS7003;43626;53.866;30.298;2023-07-20T08:55:12;143;142.4;134.2
57798;PMS7003;43626;53.866;30.298;2023-07-20T09:00:30;137.2;137.2;131
57798;PMS7003;43626;53.866;30.298;2023-07-20T09:05:32;120.8;118.3;113
57798;PMS7003;43626;53.866;30.298;2023-07-20T09:10:56;144.4;141.8;135.6
57798;PMS7003;43626;53.866;30.298;2023-07-20T09:15:12;86;84.8;81.6
57798;PMS7003;43626;53.866;30.298;2023-07-20T09:20:12;18.2;16.4;14.4
57798;PMS7003;43626;53.866;30.298;2023-07-20T09:25:38;36;31.4;27.6
57798;PMS7003;43626;53.866;30.298;2023-07-20T09:30:18;6.2;6.2;5.6
57798;PMS7003;43626;53.866;30.298;2023-07-20T09:35:12;0;0;0
57798;PMS7003;43626;53.866;30.298;2023-07-20T09:40:56;0;0;0
57798;PMS7003;43626;53.866;30.298;2023-07-20T09:45:57;0;0;0
57798;PMS7003;43626;53.866;30.298;2023-07-20T09:50:16;0;0;0
57798;PMS7003;43626;53.866;30.298;2023-07-20T09:55:32;0;0;0
57798;PMS7003;43626;53.866;30.298;2023-07-20T10:00:58;0;0;0
57798;PMS7003;43626;53.866;30.298;2023-07-20T10:05:24;0;0;0
57798;PMS7003;43626;53.866;30.298;2023-07-20T10:10:18;0.6;0.6;0.6
57798;PMS7003;43626;53.866;30.298;2023-07-20T10:15:13;2.8;2.8;2.4
57798;PMS7003;43626;53.866;30.298;2023-07-20T10:20:50;0.2;0.2;0.2
57798;PMS7003;43626;53.866;30.298;2023-07-20T10:25:18;1;1;0.8
57798;PMS7003;43626;53.866;30.298;2023-07-20T10:30:18;0;0;0
57798;PMS7003;43626;53.866;30.298;2023-07-20T10:36:00;0.2;0.2;0.2
57798;PMS7003;43626;53.866;30.298;2023-07-20T10:40:53;0;0;0
57798;PMS7003;43626;53.866;30.298;2023-07-20T10:45:35;0;0;0
57798;PMS7003;43626;53.866;30.298;2023-07-20T10:50:12;0;0;0
57798;PMS7003;43626;53.866;30.298;2023-07-20T10:55:22;0;0;0
57798;PMS7003;43626;53.866;30.298;2023-07-20T11:00:24;0;0;0
57798;PMS7003;43626;53.866;30.298;2023-07-20T11:05:58;0;0;0
57798;PMS7003;43626;53.866;30.298;2023-07-20T11:10:44;0;0;0
57798;PMS7003;43626;53.866;30.298;2023-07-20T11:16:05;0;0;0
57798;PMS7003;43626;53.866;30.298;2023-07-20T11:20:58;0;0;0
57798;PMS7003;43626;53.866;30.298;2023-07-20T11:25:44;0;0;0
57798;PMS7003;43626;53.866;30.298;2023-07-20T11:30:36;0;0;0
57798;PMS7003;43626;53.866;30.298;2023-07-20T11:35:12;0;0;0
57798;PMS7003;43626;53.866;30.298;2023-07-20T11:40:58;0;0;0
57798;PMS7003;43626;53.866;30.298;2023-07-20T11:45:59;0;0;0
57798;PMS7003;43626;53.866;30.298;2023-07-20T11:50:56;0;0;0
57798;PMS7003;43626;53.866;30.298;2023-07-20T11:55:58;0;0;0
57798;PMS7003;43626;53.866;30.298;2023-07-20T12:00:44;0;0;0
57798;PMS7003;43626;53.866;30.298;2023-07-20T12:05:18;0;0;0
57798;PMS7003;43626;53.866;30.298;2023-07-20T12:10:39;0;0;0
57798;PMS7003;43626;53.866;30.298;2023-07-20T12:15:58;0;0;0
57798;PMS7003;43626;53.866;30.298;2023-07-20T12:20:36;0;0;0
57798;PMS7003;43626;53.866;30.298;2023-07-20T12:25:32;0;0;0
57798;PMS7003;43626;53.866;30.298;2023-07-20T12:30:58;0;0;0
57798;PMS7003;43626;53.866;30.298;2023-07-20T12:35:29;0;0;0
57798;PMS7003;43626;53.866;30.298;2023-07-20T12:40:12;0;0;0
57798;PMS7003;43626;53.866;30.298;2023-07-20T12:45:12;0;0;0
57798;PMS7003;43626;53.866;30.298;2023-07-20T12:50:38;0;0;0
57798;PMS7003;43626;53.866;30.298;2023-07-20T12:55:38;0;0;0
57798;PMS7003;43626;53.866;30.298;2023-07-20T13:00:44;0;0;0
57798;PMS7003;43626;53.866;30.298;2023-07-20T13:05:36;0;0;0
57798;PMS7003;43626;53.866;30.298;2023-07-20T13:10:50;0;0;0
57798;PMS7003;43626;53.866;30.298;2023-07-20T13:15:18;0;0;0
57798;PMS7003;43626;53.866;30.298;2023-07-20T13:20:18;0;0;0
57798;PMS7003;43626;53.866;30.298;2023-07-20T13:25:18;0.8;0.8;0.8
57798;PMS7003;43626;53.866;30.298;2023-07-20T13:30:38;118;115.2;106.8
57798;PMS7003;43626;53.866;30.298;2023-07-20T13:35:58;191.8;187.4;166.6
57798;PMS7003;43626;53.866;30.298;2023-07-20T13:40:36;262;257.6;243.2
57798;PMS7003;43626;53.866;30.298;2023-07-20T13:45:12;279;277.6;271
57798;PMS7003;43626;53.866;30.298;2023-07-20T13:50:38;184.8;183.4;178.4
57798;PMS7003;43626;53.866;30.298;2023-07-20T13:55:12;163.2;162;156.4
57798;PMS7003;43626;53.866;30.298;2023-07-20T14:00:30;167.8;167.8;163.6
57798;PMS7003;43626;53.866;30.298;2023-07-20T14:05:50;161.8;161.2;158.4
57798;PMS7003;43626;53.866;30.298;2023-07-20T14:10:58;161.8;161;158.8
57798;PMS7003;43626;53.866;30.298;2023-07-20T14:15:18;147.4;145.6;142
57798;PMS7003;43626;53.866;30.298;2023-07-20T14:20:12;126.8;126.8;121.2
57798;PMS7003;43626;53.866;30.298;2023-07-20T14:25:58;122.8;122.2;115.6
57798;PMS7003;43626;53.866;30.298;2023-07-20T14:30:12;127;126.6;121.6
57798;PMS7003;43626;53.866;30.298;2023-07-20T14:35:18;137.8;135.8;131
57798;PMS7003;43626;53.866;30.298;2023-07-20T14:40:36;120.4;119;114.8
57798;PMS7003;43626;53.866;30.298;2023-07-20T14:45:50;105;104;101.6
57798;PMS7003;43626;53.866;30.298;2023-07-20T14:50:38;94.8;92.8;89.2
57798;PMS7003;43626;53.866;30.298;2023-07-20T14:55:12;100.2;97.8;93.2
57798;PMS7003;43626;53.866;30.298;2023-07-20T15:00:58;113.8;112.8;107.8
57798;PMS7003;43626;53.866;30.298;2023-07-20T15:05:50;118.4;117;113
57798;PMS7003;43626;53.866;30.298;2023-07-20T15:10:58;102.3;100;95.5
57798;PMS7003;43626;53.866;30.298;2023-07-20T15:15:30;105.8;103.6;100.8
57798;PMS7003;43626;53.866;30.298;2023-07-20T15:20:50;110.8;110;106.6
57798;PMS7003;43626;53.866;30.298;2023-07-20T15:25:18;106;105.2;101.8
57798;PMS7003;43626;53.866;30.298;2023-07-20T15:30:59;101.6;100.8;97.8
57798;PMS7003;43626;53.866;30.298;2023-07-20T15:35:44;114;112.2;108.4
57798;PMS7003;43626;53.866;30.298;2023-07-20T15:40:48;112;109.6;104.8
57798;PMS7003;43626;53.866;30.298;2023-07-20T15:46:00;113.2;111.2;106.8
57798;PMS7003;43626;53.866;30.298;2023-07-20T15:50:38;112;109.6;104.2
57798;PMS7003;43626;53.866;30.298;2023-07-20T15:55:18;113.4;112.6;106.8
57798;PMS7003;43626;53.866;30.298;2023-07-20T16:00:28;106.4;104;100.4
57798;PMS7003;43626;53.866;30.298;2023-07-20T16:05:58;107.6;105.6;101
57798;PMS7003;43626;53.866;30.298;2023-07-20T16:10:58;95.5;92.5;87.5
57798;PMS7003;43626;53.866;30.298;2023-07-20T16:15:58;105.8;102.6;97.6
57798;PMS7003;43626;53.866;30.298;2023-07-20T16:20:59;121;118.4;114.4
57798;PMS7003;43626;53.866;30.298;2023-07-20T16:25:44;108.8;105.8;102
57798;PMS7003;43626;53.866;30.298;2023-07-20T16:30:18;122;119.8;116.6
57798;PMS7003;43626;53.866;30.298;2023-07-20T16:35:44;115.8;114;111.2
57798;PMS7003;43626;53.866;30.298;2023-07-20T16:40:58;114.4;109.8;105.2
57798;PMS7003;43626;53.866;30.298;2023-07-20T16:45:36;116.6;112.6;107.4
57798;PMS7003;43626;53.866;30.298;2023-07-20T16:50:30;136;130.4;124
57798;PMS7003;43626;53.866;30.298;2023-07-20T16:55:56;136.8;132.2;127.8
57798;PMS7003;43626;53.866;30.298;2023-07-20T17:00:12;138.2;135.6;132
57798;PMS7003;43626;53.866;30.298;2023-07-20T17:05:24;141;138.2;135.4
57798;PMS7003;43626;53.866;30.298;2023-07-20T17:10:18;178.8;174.8;172.4
57798;PMS7003;43626;53.866;30.298;2023-07-20T17:15:38;171.5;166.8;164.5
57798;PMS7003;43626;53.866;30.298;2023-07-20T17:20:38;190.4;186.8;185.2
57798;PMS7003;43626;53.866;30.298;2023-07-20T17:25:44;201.2;198.8;196.6
57798;PMS7003;43626;53.866;30.298;2023-07-20T17:30:44;190.6;186.8;184.2
57798;PMS7003;43626;53.866;30.298;2023-07-20T17:35:12;181.4;179;177.2
57798;PMS7003;43626;53.866;30.298;2023-07-20T17:40:13;189.6;186.8;183.2
57798;PMS7003;43626;53.866;30.298;2023-07-20T17:45:24;197.6;194.6;191.4
57798;PMS7003;43626;53.866;30.298;2023-07-20T17:50:30;196;193.8;191.2
57798;PMS7003;43626;53.866;30.298;2023-07-20T17:55:20;175.6;171;168.8
57798;PMS7003;43626;53.866;30.298;2023-07-20T18:00:59;170.8;167.4;165.2
57798;PMS7003;43626;53.866;30.298;2023-07-20T18:05:36;268;267.4;265
57798;PMS7003;43626;53.866;30.298;2023-07-20T18:10:30;232.8;232.4;230
57798;PMS7003;43626;53.866;30.298;2023-07-20T18:15:38;203.5;200.8;198.3
57798;PMS7003;43626;53.866;30.298;2023-07-20T18:20:12;180.6;178.6;176.8
57798;PMS7003;43626;53.866;30.298;2023-07-20T18:25:30;124;117.4;114.6
57798;PMS7003;43626;53.866;30.298;2023-07-20T18:30:50;176.2;174.4;173.2
57798;PMS7003;43626;53.866;30.298;2023-07-20T18:35:58;129.8;126.8;125.8
57798;PMS7003;43626;53.866;30.298;2023-07-20T18:40:12;186;182.6;181
57798;PMS7003;43626;53.866;30.298;2023-07-20T18:45:12;180.8;179;177.2
57798;PMS7003;43626;53.866;30.298;2023-07-20T18:50:58;244;243.2;240.2
57798;PMS7003;43626;53.866;30.298;2023-07-20T18:55:32;246;244.8;242.6
57798;PMS7003;43626;53.866;30.298;2023-07-20T19:00:30;240;239.6;237.6
57798;PMS7003;43626;53.866;30.298;2023-07-20T19:05:36;224;223;221.6
57798;PMS7003;43626;53.866;30.298;2023-07-20T19:10:58;217.2;216;213.8
57798;PMS7003;43626;53.866;30.298;2023-07-20T19:15:18;216.5;216.5;215
57798;PMS7003;43626;53.866;30.298;2023-07-20T19:20:18;227.8;227.8;226.4
57798;PMS7003;43626;53.866;30.298;2023-07-20T19:25:44;211;210.2;208.4
57798;PMS7003;43626;53.866;30.298;2023-07-20T19:30:50;209.6;209;207.4
57798;PMS7003;43626;53.866;30.298;2023-07-20T19:35:58;219;218.4;217.2
57798;PMS7003;43626;53.866;30.298;2023-07-20T19:40:50;218.2;217.6;215.8
57798;PMS7003;43626;53.866;30.298;2023-07-20T19:45:18;239.8;238.4;236.2
57798;PMS7003;43626;53.866;30.298;2023-07-20T19:50:12;250;248;243.4
57798;PMS7003;43626;53.866;30.298;2023-07-20T19:55:59;256.8;255;249.6
57798;PMS7003;43626;53.866;30.298;2023-07-20T20:00:44;246.8;243.6;238
57798;PMS7003;43626;53.866;30.298;2023-07-20T20:05:33;250.4;249.2;243.8
57798;PMS7003;43626;53.866;30.298;2023-07-20T20:10:58;245.2;242.8;237.4
57798;PMS7003;43626;53.866;30.298;2023-07-20T20:15:44;262.8;261.3;256
57798;PMS7003;43626;53.866;30.298;2023-07-20T20:20:18;259.4;258;253.6
57798;PMS7003;43626;53.866;30.298;2023-07-20T20:25:12;236.2;234.8;232.2
57798;PMS7003;43626;53.866;30.298;2023-07-20T20:30:47;216;212.4;209.4
57798;PMS7003;43626;53.866;30.298;2023-07-20T20:35:59;182.4;179.4;177.4
57798;PMS7003;43626;53.866;30.298;2023-07-20T20:40:59;160.4;156.2;154
57798;PMS7003;43626;53.866;30.298;2023-07-20T20:46:00;168.2;165.2;163.4
57798;PMS7003;43626;53.866;30.298;2023-07-20T20:50:44;156.6;151.6;149.8
57798;PMS7003;43626;53.866;30.298;2023-07-20T20:55:12;172.6;168.8;166.6
57798;PMS7003;43626;53.866;30.298;2023-07-20T21:00:44;152.8;148.4;146.6
57798;PMS7003;43626;53.866;30.298;2023-07-20T21:05:58;147.2;142.2;139.6
57798;PMS7003;43626;53.866;30.298;2023-07-20T21:10:33;151.8;149.6;146.6
57798;PMS7003;43626;53.866;30.298;2023-07-20T21:15:30;158;155.8;152.8
57798;PMS7003;43626;53.866;30.298;2023-07-20T21:20:58;155;151;147.6
57798;PMS7003;43626;53.866;30.298;2023-07-20T21:25:18;164.4;161.4;158.4
57798;PMS7003;43626;53.866;30.298;2023-07-20T21:30:24;159;155.2;153.2
57798;PMS7003;43626;53.866;30.298;2023-07-20T21:35:12;152.4;148;145.8
57798;PMS7003;43626;53.866;30.298;2023-07-20T21:40:38;177.6;175.4;173
57798;PMS7003;43626;53.866;30.298;2023-07-20T21:45:30;187;182;179.4
57798;PMS7003;43626;53.866;30.298;2023-07-20T21:50:45;168;162.2;160
57798;PMS7003;43626;53.866;30.298;2023-07-20T21:55:58;156.4;150.8;148.2
57798;PMS7003;43626;53.866;30.298;2023-07-20T22:00:58;155.2;150.2;147.2
57798;PMS7003;43626;53.866;30.298;2023-07-20T22:05:12;152.2;146;144.4
57798;PMS7003;43626;53.866;30.298;2023-07-20T22:10:12;153.2;147.6;144.4
57798;PMS7003;43626;53.866;30.298;2023-07-20T22:15:12;148.4;141.4;138.6
57798;PMS7003;43626;53.866;30.298;2023-07-20T22:20:32;141;135.8;133.8
57798;PMS7003;43626;53.866;30.298;2023-07-20T22:25:58;142;135;132.4
57798;PMS7003;43626;53.866;30.298;2023-07-20T22:30:36;140.6;133;131.4
57798;PMS7003;43626;53.866;30.298;2023-07-20T22:35:12;142.2;136.4;133.8
57798;PMS7003;43626;53.866;30.298;2023-07-20T22:40:38;144;138.6;136
57798;PMS7003;43626;53.866;30.298;2023-07-20T22:45:24;143;136.2;134.2
57798;PMS7003;43626;53.866;30.298;2023-07-20T22:50:30;142.4;137.4;134.4
57798;PMS7003;43626;53.866;30.298;2023-07-20T22:55:36;139;130.4;125.8
57798;PMS7003;43626;53.866;30.298;2023-07-20T23:00:50;141.2;135.2;131.4
57798;PMS7003;43626;53.866;30.298;2023-07-20T23:05:12;137.2;131.8;128.4
57798;PMS7003;43626;53.866;30.298;2023-07-20T23:10:30;131.8;127;123.8
57798;PMS7003;43626;53.866;30.298;2023-07-20T23:15:44;139.4;132.8;129.4
57798;PMS7003;43626;53.866;30.298;2023-07-20T23:20:50;141.8;135.8;132.3
57798;PMS7003;43626;53.866;30.298;2023-07-20T23:25:30;142.8;135.4;131
57798;PMS7003;43626;53.866;30.298;2023-07-20T23:30:18;152.6;145;139.6
57798;PMS7003;43626;53.866;30.298;2023-07-20T23:35:58;151.2;144.6;140.4
57798;PMS7003;43626;53.866;30.298;2023-07-20T23:40:18;155.2;151.6;147.6
57798;PMS7003;43626;53.866;30.298;2023-07-20T23:45:52;152.8;145.8;140.8
57798;PMS7003;43626;53.866;30.298;2023-07-20T23:50:58;155;151.4;146.4
57798;PMS7003;43626;53.866;30.298;2023-07-20T23:55:58;154.4;148.2;143.2
